createdAt,value
2023-05-08T00:00:08.843Z,96903.25
2023-05-08T00:01:10.476Z,96896.00
2023-05-08T00:02:12.019Z,96894.38
2023-05-08T00:03:13.653Z,96895.22
2023-05-08T00:04:15.631Z,96892.94
2023-05-08T00:05:17.752Z,96898.63
2023-05-08T00:06:19.407Z,96890.22
2023-05-08T00:07:20.953Z,96883.66
2023-05-08T00:08:23.077Z,96889.84
2023-05-08T00:09:24.615Z,96889.44
2023-05-08T00:10:27.622Z,96898.44
2023-05-08T00:11:29.180Z,96891.13
2023-05-08T00:12:30.822Z,96894.97
2023-05-08T00:13:32.380Z,96890.34
2023-05-08T00:14:33.989Z,96887.97
2023-05-08T00:15:36.504Z,96887.28
2023-05-08T00:16:38.173Z,96878.84
2023-05-08T00:17:39.955Z,96887.16
2023-05-08T00:18:41.633Z,96889.91
2023-05-08T00:19:43.283Z,96892.28
2023-05-08T00:20:44.905Z,96889.69
2023-05-08T00:21:46.558Z,96897.53
2023-05-08T00:22:48.081Z,96899.53
2023-05-08T00:23:49.642Z,96900.78
2023-05-08T00:24:51.188Z,96897.81
2023-05-08T00:25:52.815Z,96901.75
2023-05-08T00:26:54.351Z,96896.06
2023-05-08T00:27:55.904Z,96901.88
2023-05-08T00:28:57.554Z,96899.56
2023-05-08T00:29:59.242Z,96901.88
2023-05-08T00:31:02.106Z,96894.94
2023-05-08T00:32:03.768Z,96893.53
2023-05-08T00:33:05.385Z,96888.53
2023-05-08T00:34:06.994Z,96891.88
2023-05-08T00:35:08.739Z,96886.22
2023-05-08T00:36:10.320Z,96888.47
2023-05-08T00:37:11.868Z,96881.28
2023-05-08T00:38:13.507Z,96890.34
2023-05-08T00:39:15.089Z,96895.84
2023-05-08T00:40:16.682Z,96902.47
2023-05-08T00:41:18.279Z,96896.03
2023-05-08T00:42:20.029Z,96897.31
2023-05-08T00:43:28.048Z,96906.28
2023-05-08T00:44:29.643Z,96900.88
2023-05-08T00:45:37.814Z,96898.56
2023-05-08T00:46:40.985Z,96900.88
2023-05-08T00:47:43.080Z,96900.03
2023-05-08T00:48:46.428Z,96895.78
2023-05-08T00:49:48.836Z,96903.06
2023-05-08T00:50:53.006Z,96897.66
2023-05-08T00:51:56.030Z,96900.78
2023-05-08T00:53:00.384Z,96895.78
2023-05-08T00:54:02.394Z,96897.75
2023-05-08T00:55:05.306Z,96896.88
2023-05-08T00:56:14.290Z,96901.38
2023-05-08T00:57:16.877Z,96900.50
2023-05-08T00:58:20.702Z,96896.38
2023-05-08T00:59:23.077Z,96898.72
2023-05-08T01:00:25.106Z,96900.31
2023-05-08T01:01:27.034Z,96897.25
2023-05-08T01:02:31.471Z,96894.94
2023-05-08T01:03:36.300Z,96902.59
2023-05-08T01:04:39.342Z,96895.56
2023-05-08T01:05:41.647Z,96895.44
2023-05-08T01:06:43.283Z,96898.53
2023-05-08T01:07:45.648Z,96898.44
2023-05-08T01:08:47.226Z,96896.50
2023-05-08T01:09:49.233Z,96893.84
2023-05-08T01:11:09.421Z,96899.28
2023-05-08T01:12:22.851Z,96900.81
2023-05-08T01:14:07.878Z,96903.81
2023-05-08T01:15:14.030Z,96904.44
2023-05-08T01:16:16.615Z,96910.47
2023-05-08T01:17:33.292Z,96902.25
2023-05-08T01:18:46.132Z,96907.22
2023-05-08T01:20:06.082Z,96906.09
2023-05-08T01:21:27.165Z,96906.31
2023-05-08T01:22:56.299Z,96904.03
2023-05-08T01:24:36.026Z,96904.13
2023-05-08T01:25:46.862Z,96909.91
2023-05-08T01:27:03.889Z,96903.06
2023-05-08T01:28:30.341Z,96908.91
2023-05-08T01:30:05.032Z,96906.72
2023-05-08T01:31:26.275Z,96912.94
2023-05-08T01:32:35.163Z,96912.56
2023-05-08T01:33:48.489Z,96905.88
2023-05-08T01:34:55.702Z,96903.19
2023-05-08T01:36:06.562Z,96903.91
2023-05-08T01:37:12.703Z,96905.81
2023-05-08T01:38:28.069Z,96905.50
2023-05-08T01:40:02.614Z,96905.66
2023-05-08T01:41:14.294Z,96900.63
2023-05-08T01:42:26.530Z,96899.75
2023-05-08T01:43:52.327Z,96893.63
2023-05-08T01:45:18.882Z,96897.03
2023-05-08T01:46:27.019Z,96895.19
2023-05-08T01:47:33.180Z,96899.53
2023-05-08T01:48:39.226Z,96898.09
2023-05-08T01:49:45.731Z,96900.16
2023-05-08T01:50:51.638Z,96905.25
2023-05-08T01:51:59.491Z,96907.66
2023-05-08T01:53:12.729Z,96898.41
2023-05-08T01:54:24.341Z,96898.41
2023-05-08T01:55:32.081Z,96902.03
2023-05-08T01:56:35.527Z,96901.31
2023-05-08T01:57:42.507Z,96895.47
2023-05-08T01:58:45.763Z,96896.94
2023-05-08T01:59:49.490Z,96891.22
2023-05-08T02:00:51.560Z,96897.53
2023-05-08T02:01:57.174Z,96889.09
2023-05-08T02:02:59.640Z,96898.47
2023-05-08T02:04:03.026Z,96893.88
2023-05-08T02:05:06.818Z,96898.59
2023-05-08T02:06:10.182Z,96899.41
2023-05-08T02:07:11.991Z,96900.22
2023-05-08T02:08:15.743Z,96895.22
2023-05-08T02:09:19.996Z,96902.59
2023-05-08T02:10:25.175Z,96900.31
2023-05-08T02:11:27.829Z,96895.56
2023-05-08T02:12:32.197Z,96900.97
2023-05-08T02:13:35.705Z,96894.81
2023-05-08T02:14:38.580Z,96895.22
2023-05-08T02:15:42.098Z,96897.13
2023-05-08T02:16:45.094Z,96899.41
2023-05-08T02:17:49.656Z,96895.84
2023-05-08T02:18:56.347Z,96895.31
2023-05-08T02:20:00.972Z,96896.09
2023-05-08T02:21:05.453Z,96900.34
2023-05-08T02:22:08.708Z,96903.09
2023-05-08T02:23:11.942Z,96897.81
2023-05-08T02:24:14.726Z,96896.59
2023-05-08T02:25:16.877Z,96903.16
2023-05-08T02:26:21.446Z,96896.91
2023-05-08T02:27:26.657Z,96899.22
2023-05-08T02:28:30.008Z,96893.81
2023-05-08T02:29:32.307Z,96907.72
2023-05-08T02:30:35.001Z,96905.03
2023-05-08T02:31:38.853Z,96907.66
2023-05-08T02:32:45.681Z,96907.13
2023-05-08T02:33:48.684Z,96910.25
2023-05-08T02:35:02.004Z,96906.09
2023-05-08T02:36:06.183Z,96908.47
2023-05-08T02:37:08.577Z,96905.44
2023-05-08T02:38:11.988Z,96907.41
2023-05-08T02:39:15.211Z,96908.59
2023-05-08T02:40:18.716Z,96909.41
2023-05-08T02:41:23.063Z,96912.44
2023-05-08T02:42:25.211Z,96908.78
2023-05-08T02:43:27.384Z,96913.72
2023-05-08T02:44:29.088Z,96918.78
2023-05-08T02:45:37.073Z,96921.09
2023-05-08T02:46:47.986Z,96918.41
2023-05-08T02:48:10.868Z,96908.53
2023-05-08T02:49:29.394Z,96912.84
2023-05-08T02:50:41.896Z,96917.88
2023-05-08T02:51:43.376Z,96921.59
2023-05-08T02:52:49.975Z,96920.56
2023-05-08T02:54:09.229Z,96921.19
2023-05-08T02:55:21.063Z,96916.84
2023-05-08T02:57:01.412Z,96919.78
2023-05-08T02:58:12.579Z,96920.19
2023-05-08T02:59:21.757Z,96918.94
2023-05-08T03:00:29.170Z,96921.03
2023-05-08T03:01:43.582Z,96922.50
2023-05-08T03:02:56.193Z,96924.69
2023-05-08T03:04:04.610Z,96929.44
2023-05-08T03:05:30.665Z,96929.09
2023-05-08T03:06:38.729Z,96925.66
2023-05-08T03:07:41.857Z,96923.56
2023-05-08T03:08:44.932Z,96921.44
2023-05-08T03:09:50.769Z,96924.94
2023-05-08T03:10:55.617Z,96922.25
2023-05-08T03:12:06.446Z,96930.03
2023-05-08T03:13:11.167Z,96928.22
2023-05-08T03:14:15.916Z,96924.38
2023-05-08T03:15:44.765Z,96923.19
2023-05-08T03:16:51.070Z,96921.72
2023-05-08T03:17:59.043Z,96925.19
2023-05-08T03:19:03.803Z,96931.06
2023-05-08T03:20:08.209Z,96925.19
2023-05-08T03:21:13.237Z,96931.25
2023-05-08T03:22:16.432Z,96931.75
2023-05-08T03:23:20.835Z,96926.44
2023-05-08T03:24:24.546Z,96929.63
2023-05-08T03:25:27.868Z,96932.56
2023-05-08T03:26:29.871Z,96939.03
2023-05-08T03:27:33.217Z,96936.53
2023-05-08T03:28:36.495Z,96938.22
2023-05-08T03:29:39.884Z,96939.94
2023-05-08T03:30:42.243Z,96938.13
2023-05-08T03:31:45.194Z,96932.88
2023-05-08T03:32:48.058Z,96937.25
2023-05-08T03:33:53.982Z,96934.97
2023-05-08T03:34:58.620Z,96932.69
2023-05-08T03:36:00.211Z,96928.16
2023-05-08T03:37:01.946Z,96932.38
2023-05-08T03:38:04.499Z,96942.84
2023-05-08T03:39:06.289Z,96939.06
2023-05-08T03:40:09.790Z,96944.59
2023-05-08T03:41:12.259Z,96937.75
2023-05-08T03:42:21.475Z,96932.06
2023-05-08T03:43:23.459Z,96940.28
2023-05-08T03:44:26.101Z,96943.84
2023-05-08T03:45:28.760Z,96936.19
2023-05-08T03:46:33.105Z,96945.19
2023-05-08T03:47:36.120Z,96946.81
2023-05-08T03:48:38.800Z,96946.84
2023-05-08T03:49:40.460Z,96938.44
2023-05-08T03:50:42.456Z,96943.91
2023-05-08T03:51:44.789Z,96954.78
2023-05-08T03:52:46.571Z,96947.88
2023-05-08T03:53:48.144Z,96953.69
2023-05-08T03:54:49.640Z,96950.25
2023-05-08T03:55:51.292Z,96944.09
2023-05-08T03:56:54.719Z,96950.69
2023-05-08T03:58:31.508Z,96951.91
2023-05-08T03:59:52.300Z,96949.63
2023-05-08T04:01:09.064Z,96956.66
2023-05-08T04:02:16.492Z,96946.50
2023-05-08T04:03:41.496Z,96949.03
2023-05-08T04:04:47.367Z,96949.78
2023-05-08T04:06:01.208Z,96956.66
2023-05-08T04:07:08.578Z,96962.59
2023-05-08T04:08:17.187Z,96958.19
2023-05-08T04:09:31.710Z,96963.47
2023-05-08T04:10:42.384Z,96958.50
2023-05-08T04:11:50.557Z,96969.44
2023-05-08T04:12:57.901Z,96959.88
2023-05-08T04:14:03.869Z,96967.22
2023-05-08T04:15:11.637Z,96974.47
2023-05-08T04:16:26.997Z,96970.59
2023-05-08T04:17:36.734Z,96974.47
2023-05-08T04:18:44.271Z,96968.66
2023-05-08T04:19:47.212Z,96969.06
2023-05-08T04:20:53.782Z,96968.97
2023-05-08T04:21:59.495Z,96964.25
2023-05-08T04:23:02.443Z,96970.50
2023-05-08T04:24:07.173Z,96967.41
2023-05-08T04:25:11.288Z,96971.97
2023-05-08T04:26:16.653Z,96973.13
2023-05-08T04:27:18.857Z,96977.38
2023-05-08T04:28:21.684Z,96974.13
2023-05-08T04:29:24.288Z,96971.97
2023-05-08T04:30:26.215Z,96974.34
2023-05-08T04:31:28.343Z,96975.13
2023-05-08T04:32:31.607Z,96973.81
2023-05-08T04:33:35.385Z,96974.75
2023-05-08T04:34:37.241Z,96980.06
2023-05-08T04:35:38.842Z,96976.88
2023-05-08T04:36:40.602Z,96977.09
2023-05-08T04:37:43.577Z,96977.09
2023-05-08T04:38:45.218Z,96980.00
2023-05-08T04:39:51.082Z,96982.47
2023-05-08T04:40:52.638Z,96974.81
2023-05-08T04:41:55.771Z,96977.22
2023-05-08T04:42:57.561Z,96979.50
2023-05-08T04:43:59.378Z,96972.41
2023-05-08T04:45:01.355Z,96975.97
2023-05-08T04:46:05.799Z,96977.38
2023-05-08T04:47:07.419Z,96973.13
2023-05-08T04:48:08.998Z,96979.84
2023-05-08T04:49:10.642Z,96983.19
2023-05-08T04:50:12.418Z,96984.19
2023-05-08T04:51:13.988Z,96975.34
2023-05-08T04:52:15.966Z,96978.78
2023-05-08T04:53:17.468Z,96980.06
2023-05-08T04:54:19.037Z,96973.19
2023-05-08T04:55:20.599Z,96972.06
2023-05-08T04:56:22.164Z,96978.66
2023-05-08T04:57:23.750Z,96976.19
2023-05-08T04:58:25.388Z,96972.13
2023-05-08T04:59:27.233Z,96967.44
2023-05-08T05:00:28.798Z,96963.59
2023-05-08T05:01:30.468Z,96970.41
2023-05-08T05:02:32.109Z,96970.69
2023-05-08T05:03:33.715Z,96976.81
2023-05-08T05:04:36.590Z,96967.00
2023-05-08T05:05:38.982Z,96963.91
2023-05-08T05:06:41.105Z,96958.63
2023-05-08T05:07:42.753Z,96960.34
2023-05-08T05:08:44.293Z,96956.50
2023-05-08T05:09:46.074Z,96953.09
2023-05-08T05:10:47.629Z,96960.34
2023-05-08T05:11:49.202Z,96953.66
2023-05-08T05:12:50.809Z,96952.59
2023-05-08T05:13:52.372Z,96960.06
2023-05-08T05:14:53.984Z,96950.53
2023-05-08T05:15:56.271Z,96952.72
2023-05-08T05:16:58.366Z,96946.53
2023-05-08T05:17:59.949Z,96951.31
2023-05-08T05:19:01.550Z,96949.56
2023-05-08T05:20:03.644Z,96953.09
2023-05-08T05:21:05.204Z,96958.34
2023-05-08T05:22:08.169Z,96953.66
2023-05-08T05:23:09.729Z,96951.53
2023-05-08T05:24:11.347Z,96946.66
2023-05-08T05:25:13.098Z,96949.63
2023-05-08T05:26:14.800Z,96947.59
2023-05-08T05:27:16.348Z,96947.97
2023-05-08T05:28:17.889Z,96947.13
2023-05-08T05:29:19.581Z,96943.13
2023-05-08T05:30:21.384Z,96949.16
2023-05-08T05:31:23.085Z,96950.50
2023-05-08T05:32:24.683Z,96942.56
2023-05-08T05:33:26.270Z,96947.75
2023-05-08T05:34:27.834Z,96954.94
2023-05-08T05:35:29.415Z,96948.44
2023-05-08T05:36:30.913Z,96952.47
2023-05-08T05:37:32.464Z,96942.16
2023-05-08T05:38:34.067Z,96945.38
2023-05-08T05:39:36.331Z,96943.13
2023-05-08T05:40:38.024Z,96940.88
2023-05-08T05:41:39.647Z,96934.72
2023-05-08T05:42:41.240Z,96940.19
2023-05-08T05:43:42.789Z,96938.28
2023-05-08T05:44:44.307Z,96935.56
2023-05-08T05:45:45.822Z,96931.75
2023-05-08T05:46:47.521Z,96945.06
2023-05-08T05:47:50.091Z,96940.53
2023-05-08T05:48:51.922Z,96940.63
2023-05-08T05:49:53.425Z,96940.28
2023-05-08T05:50:55.026Z,96936.41
2023-05-08T05:51:56.880Z,96937.22
2023-05-08T05:52:58.386Z,96928.72
2023-05-08T05:54:00.056Z,96926.00
2023-05-08T05:55:01.636Z,96933.38
2023-05-08T05:56:03.229Z,96928.38
2023-05-08T05:57:05.333Z,96931.53
2023-05-08T05:58:07.001Z,96933.06
2023-05-08T05:59:08.833Z,96927.66
2023-05-08T06:00:11.376Z,96930.06
2023-05-08T06:01:12.978Z,96929.34
2023-05-08T06:02:18.648Z,96927.84
2023-05-08T06:03:22.482Z,96924.75
2023-05-08T06:04:24.179Z,96933.41
2023-05-08T06:05:25.938Z,96930.34
2023-05-08T06:06:27.694Z,96932.69
2023-05-08T06:07:29.322Z,96928.47
2023-05-08T06:08:30.949Z,96929.66
2023-05-08T06:09:32.470Z,96934.72
2023-05-08T06:10:34.561Z,96931.25
2023-05-08T06:11:36.443Z,96924.25
2023-05-08T06:12:38.012Z,96932.78
2023-05-08T06:13:40.904Z,96933.94
2023-05-08T06:14:42.390Z,96930.44
2023-05-08T06:15:44.008Z,96929.28
2023-05-08T06:16:45.560Z,96929.69
2023-05-08T06:17:47.252Z,96928.88
2023-05-08T06:18:48.937Z,96930.44
2023-05-08T06:19:53.974Z,96926.56
2023-05-08T06:20:59.092Z,96921.91
2023-05-08T06:22:00.761Z,96933.56
2023-05-08T06:23:02.445Z,96922.66
2023-05-08T06:24:04.159Z,96926.94
2023-05-08T06:25:09.710Z,96924.25
2023-05-08T06:26:11.430Z,96916.44
2023-05-08T06:27:12.974Z,96923.44
2023-05-08T06:28:14.516Z,96918.81
2023-05-08T06:29:16.089Z,96928.13
2023-05-08T06:30:17.658Z,96920.41
2023-05-08T06:31:19.265Z,96921.59
2023-05-08T06:32:21.339Z,96925.84
2023-05-08T06:33:25.428Z,96925.03
2023-05-08T06:34:28.252Z,96924.22
2023-05-08T06:35:29.774Z,96920.31
2023-05-08T06:36:31.840Z,96929.59
2023-05-08T06:37:33.477Z,96920.97
2023-05-08T06:38:35.050Z,96920.53
2023-05-08T06:39:36.827Z,96922.53
2023-05-08T06:40:42.461Z,96920.34
2023-05-08T06:41:47.814Z,96923.47
2023-05-08T06:42:49.478Z,96921.94
2023-05-08T06:43:51.086Z,96917.25
2023-05-08T06:44:53.740Z,96909.41
2023-05-08T06:45:55.323Z,96904.38
2023-05-08T06:46:56.984Z,96906.31
2023-05-08T06:47:58.653Z,96905.16
2023-05-08T06:49:00.242Z,96901.66
2023-05-08T06:50:01.857Z,96904.00
2023-05-08T06:51:03.706Z,96902.78
2023-05-08T06:52:05.338Z,96902.38
2023-05-08T06:53:08.091Z,96898.03
2023-05-08T06:54:09.650Z,96899.88
2023-05-08T06:55:11.737Z,96897.78
2023-05-08T06:56:13.469Z,96897.41
2023-05-08T06:57:16.253Z,96901.28
2023-05-08T06:58:17.793Z,96903.59
2023-05-08T06:59:19.344Z,96901.19
2023-05-08T07:00:21.215Z,96901.06
2023-05-08T07:01:22.842Z,96902.59
2023-05-08T07:02:24.480Z,96900.88
2023-05-08T07:03:26.196Z,96909.38
2023-05-08T07:05:29.760Z,96909.31
2023-05-08T07:06:31.394Z,96909.19
2023-05-08T07:07:32.944Z,96903.72
2023-05-08T07:08:34.645Z,96900.28
2023-05-08T07:09:36.275Z,96903.78
2023-05-08T07:10:37.820Z,96901.91
2023-05-08T07:11:39.377Z,96900.22
2023-05-08T07:12:41.320Z,96907.38
2023-05-08T07:13:43.584Z,96898.31
2023-05-08T07:14:45.667Z,96895.28
2023-05-08T07:15:47.356Z,96901.78
2023-05-08T07:16:48.937Z,96900.22
2023-05-08T07:17:50.615Z,96890.25
2023-05-08T07:18:52.649Z,96898.22
2023-05-08T07:19:54.187Z,96899.63
2023-05-08T07:20:55.711Z,96897.38
2023-05-08T07:21:57.321Z,96893.41
2023-05-08T07:22:58.868Z,96889.28
2023-05-08T07:24:00.469Z,96889.19
2023-05-08T07:25:02.196Z,96888.94
2023-05-08T07:26:03.842Z,96886.47
2023-05-08T07:27:05.405Z,96882.78
2023-05-08T07:28:08.116Z,96877.28
2023-05-08T07:29:09.748Z,96881.97
2023-05-08T07:30:11.525Z,96880.38
2023-05-08T07:31:13.113Z,96878.22
2023-05-08T07:32:15.428Z,96880.69
2023-05-08T07:33:17.373Z,96886.38
2023-05-08T07:34:19.230Z,96874.34
2023-05-08T07:35:20.788Z,96882.00
2023-05-08T07:36:22.866Z,96882.47
2023-05-08T07:37:24.625Z,96878.72
2023-05-08T07:38:26.405Z,96878.34
2023-05-08T07:39:27.971Z,96878.41
2023-05-08T07:40:29.471Z,96881.22
2023-05-08T07:41:31.070Z,96878.41
2023-05-08T07:42:38.767Z,96880.38
2023-05-08T07:43:40.618Z,96871.34
2023-05-08T07:44:53.774Z,96875.97
2023-05-08T07:45:57.175Z,96871.22
2023-05-08T07:46:58.955Z,96879.59
2023-05-08T07:48:00.724Z,96879.38
2023-05-08T07:49:02.452Z,96874.59
2023-05-08T07:50:04.812Z,96877.84
2023-05-08T07:51:06.337Z,96876.50
2023-05-08T07:52:07.876Z,96876.50
2023-05-08T07:53:09.401Z,96873.75
2023-05-08T07:54:10.968Z,96874.88
2023-05-08T07:55:15.572Z,96866.81
2023-05-08T07:56:17.171Z,96859.84
2023-05-08T07:57:18.688Z,96858.16
2023-05-08T07:58:21.626Z,96860.19
2023-05-08T07:59:25.022Z,96860.72
2023-05-08T08:00:29.929Z,96855.13
2023-05-08T08:01:31.636Z,96850.19
2023-05-08T08:02:33.359Z,96850.53
2023-05-08T08:03:35.000Z,96856.31
2023-05-08T08:04:36.743Z,96857.16
2023-05-08T08:05:38.370Z,96848.94
2023-05-08T08:06:40.358Z,96847.56
2023-05-08T08:07:41.923Z,96849.81
2023-05-08T08:08:43.438Z,96847.84
2023-05-08T08:09:44.984Z,96859.00
2023-05-08T08:10:46.555Z,96857.75
2023-05-08T08:11:48.127Z,96852.28
2023-05-08T08:12:49.726Z,96851.66
2023-05-08T08:13:51.293Z,96857.28
2023-05-08T08:14:52.979Z,96847.91
2023-05-08T08:15:54.565Z,96851.19
2023-05-08T08:16:56.094Z,96847.16
2023-05-08T08:17:57.813Z,96843.63
2023-05-08T08:19:00.065Z,96848.81
2023-05-08T08:20:01.717Z,96850.44
2023-05-08T08:21:06.814Z,96840.84
2023-05-08T08:22:08.351Z,96847.09
2023-05-08T08:23:10.044Z,96841.16
2023-05-08T08:24:12.324Z,96840.16
2023-05-08T08:25:14.143Z,96835.38
2023-05-08T08:26:15.915Z,96837.88
2023-05-08T08:27:17.548Z,96836.44
2023-05-08T08:28:19.858Z,96844.41
2023-05-08T08:29:21.544Z,96838.75
2023-05-08T08:30:23.158Z,96831.69
2023-05-08T08:31:24.909Z,96834.88
2023-05-08T08:32:26.582Z,96839.56
2023-05-08T08:33:29.558Z,96838.16
2023-05-08T08:34:33.769Z,96831.13
2023-05-08T08:35:35.532Z,96833.19
2023-05-08T08:36:37.229Z,96833.25
2023-05-08T08:37:38.780Z,96831.53
2023-05-08T08:38:40.544Z,96833.31
2023-05-08T08:39:42.109Z,96830.06
2023-05-08T08:40:43.707Z,96821.00
2023-05-08T08:41:45.302Z,96826.81
2023-05-08T08:42:47.372Z,96819.53
2023-05-08T08:43:49.137Z,96823.03
2023-05-08T08:44:51.317Z,96823.66
2023-05-08T08:45:53.099Z,96817.03
2023-05-08T08:46:55.748Z,96820.19
2023-05-08T08:48:01.965Z,96811.97
2023-05-08T08:49:05.019Z,96816.50
2023-05-08T08:50:11.292Z,96810.72
2023-05-08T08:51:31.378Z,96812.16
2023-05-08T08:53:06.787Z,96813.06
2023-05-08T08:54:13.563Z,96814.38
2023-05-08T08:55:18.059Z,96812.66
2023-05-08T08:56:23.673Z,96814.00
2023-05-08T08:57:28.749Z,96812.88
2023-05-08T08:58:39.044Z,96806.75
2023-05-08T08:59:43.152Z,96813.81
2023-05-08T09:00:45.410Z,96812.88
2023-05-08T09:01:56.437Z,96812.94
2023-05-08T09:02:58.626Z,96814.59
2023-05-08T09:04:00.980Z,96805.72
2023-05-08T09:05:03.983Z,96817.59
2023-05-08T09:06:06.629Z,96818.63
2023-05-08T09:07:09.605Z,96813.31
2023-05-08T09:08:12.782Z,96811.59
2023-05-08T09:09:14.389Z,96809.19
2023-05-08T09:10:16.098Z,96809.09
2023-05-08T09:11:17.624Z,96816.41
2023-05-08T09:12:19.219Z,96806.38
2023-05-08T09:13:20.819Z,96808.75
2023-05-08T09:14:24.475Z,96809.19
2023-05-08T09:15:26.078Z,96805.72
2023-05-08T09:16:28.519Z,96811.22
2023-05-08T09:17:30.329Z,96815.75
2023-05-08T09:18:31.975Z,96814.38
2023-05-08T09:19:33.853Z,96816.22
2023-05-08T09:20:35.753Z,96815.31
2023-05-08T09:21:37.760Z,96822.25
2023-05-08T09:22:40.632Z,96816.69
2023-05-08T09:24:02.629Z,96820.47
2023-05-08T09:25:04.706Z,96827.00
2023-05-08T09:26:06.305Z,96826.34
2023-05-08T09:27:22.221Z,96828.53
2023-05-08T09:28:26.877Z,96826.41
2023-05-08T09:29:28.443Z,96827.81
2023-05-08T09:30:29.998Z,96829.97
2023-05-08T09:31:40.596Z,96831.09
2023-05-08T09:32:44.540Z,96831.09
2023-05-08T09:33:46.177Z,96829.16
2023-05-08T09:34:52.632Z,96826.53
2023-05-08T09:35:58.136Z,96828.44
2023-05-08T09:37:05.549Z,96828.63
2023-05-08T09:38:07.218Z,96830.31
2023-05-08T09:39:12.665Z,96841.63
2023-05-08T09:40:19.898Z,96835.88
2023-05-08T09:41:23.362Z,96837.97
2023-05-08T09:42:37.270Z,96845.00
2023-05-08T09:43:39.545Z,96838.16
2023-05-08T09:44:51.348Z,96840.53
2023-05-08T09:45:52.875Z,96841.47
2023-05-08T09:47:14.921Z,96842.38
2023-05-08T09:48:16.606Z,96836.16
2023-05-08T09:49:18.931Z,96846.28
2023-05-08T09:50:20.493Z,96844.00
2023-05-08T09:51:23.267Z,96851.03
2023-05-08T09:52:26.370Z,96845.50
2023-05-08T09:53:32.483Z,96849.34
2023-05-08T09:54:34.384Z,96853.66
2023-05-08T09:55:48.375Z,96849.34
2023-05-08T09:56:50.007Z,96848.56
2023-05-08T09:57:57.217Z,96846.50
2023-05-08T09:58:58.789Z,96854.66
2023-05-08T10:00:06.113Z,96845.38
2023-05-08T10:01:09.179Z,96844.66
2023-05-08T10:02:12.241Z,96840.47
2023-05-08T10:03:14.030Z,96845.41
2023-05-08T10:04:15.967Z,96845.25
2023-05-08T10:05:23.573Z,96843.50
2023-05-08T10:06:25.759Z,96842.03
2023-05-08T10:07:31.556Z,96845.97
2023-05-08T10:08:33.099Z,96839.81
2023-05-08T10:09:46.912Z,96841.38
2023-05-08T10:10:51.804Z,96841.84
2023-05-08T10:11:55.483Z,96838.00
2023-05-08T10:12:58.738Z,96843.06
2023-05-08T10:14:01.208Z,96834.53
2023-05-08T10:15:02.725Z,96832.97
2023-05-08T10:16:05.118Z,96832.22
2023-05-08T10:17:10.314Z,96829.50
2023-05-08T10:18:13.130Z,96820.50
2023-05-08T10:19:17.371Z,96819.69
2023-05-08T10:20:21.625Z,96826.69
2023-05-08T10:21:28.528Z,96818.09
2023-05-08T10:22:33.689Z,96821.22
2023-05-08T10:23:37.849Z,96823.53
2023-05-08T10:24:41.729Z,96828.16
2023-05-08T10:25:48.281Z,96817.22
2023-05-08T10:27:05.686Z,96822.59
2023-05-08T10:28:33.099Z,96825.63
2023-05-08T10:29:43.064Z,96825.19
2023-05-08T10:30:48.902Z,96828.63
2023-05-08T10:31:54.426Z,96822.34
2023-05-08T10:32:59.285Z,96822.38
2023-05-08T10:34:02.580Z,96813.75
2023-05-08T10:35:08.726Z,96825.41
2023-05-08T10:36:11.134Z,96823.03
2023-05-08T10:37:13.129Z,96818.28
2023-05-08T10:38:16.541Z,96810.78
2023-05-08T10:39:18.185Z,96816.56
2023-05-08T10:40:21.447Z,96805.59
2023-05-08T10:41:23.955Z,96810.28
2023-05-08T10:42:26.093Z,96808.72
2023-05-08T10:43:33.539Z,96812.53
2023-05-08T10:44:35.362Z,96813.25
2023-05-08T10:45:37.592Z,96825.75
2023-05-08T10:47:16.173Z,96823.38
2023-05-08T10:49:02.508Z,96811.63
2023-05-08T10:50:19.156Z,96802.63
2023-05-08T10:51:44.209Z,96799.69
2023-05-08T10:53:07.022Z,96793.69
2023-05-08T10:54:08.502Z,96791.53
2023-05-08T10:55:25.222Z,96781.25
2023-05-08T10:56:27.696Z,96779.06
2023-05-08T10:57:29.353Z,96775.19
2023-05-08T10:58:41.019Z,96765.41
2023-05-08T10:59:47.094Z,96772.75
2023-05-08T11:00:57.624Z,96763.47
2023-05-08T11:02:06.048Z,96769.84
2023-05-08T11:03:20.132Z,96761.28
2023-05-08T11:04:29.371Z,96765.56
2023-05-08T11:05:31.181Z,96762.91
2023-05-08T11:06:45.479Z,96764.63
2023-05-08T11:07:57.340Z,96763.91
2023-05-08T11:09:00.605Z,96764.72
2023-05-08T11:10:14.123Z,96771.72
2023-05-08T11:11:31.573Z,96772.47
2023-05-08T11:12:33.966Z,96782.50
2023-05-08T11:13:38.662Z,96784.75
2023-05-08T11:14:42.759Z,96783.06
2023-05-08T11:15:50.567Z,96783.31
2023-05-08T11:16:55.244Z,96781.28
2023-05-08T11:17:56.883Z,96782.41
2023-05-08T11:19:18.439Z,96772.59
2023-05-08T11:20:23.711Z,96776.41
2023-05-08T11:21:25.414Z,96765.44
2023-05-08T11:22:29.170Z,96760.81
2023-05-08T11:23:32.560Z,96766.00
2023-05-08T11:24:38.223Z,96764.88
2023-05-08T11:25:44.306Z,96760.25
2023-05-08T11:26:49.041Z,96756.31
2023-05-08T11:27:50.682Z,96760.16
2023-05-08T11:28:58.575Z,96756.84
2023-05-08T11:30:22.934Z,96756.28
2023-05-08T11:31:27.697Z,96753.41
2023-05-08T11:32:58.010Z,96751.13
2023-05-08T11:33:59.648Z,96753.41
2023-05-08T11:35:01.185Z,96743.94
2023-05-08T11:36:14.107Z,96743.47
2023-05-08T11:37:25.526Z,96743.00
2023-05-08T11:38:28.494Z,96759.19
2023-05-08T11:39:30.058Z,96751.63
2023-05-08T11:40:53.312Z,96751.88
2023-05-08T11:41:55.150Z,96755.25
2023-05-08T11:43:02.424Z,96747.00
2023-05-08T11:44:09.414Z,96746.13
2023-05-08T11:45:14.146Z,96745.50
2023-05-08T11:46:17.602Z,96738.84
2023-05-08T11:47:21.595Z,96738.34
2023-05-08T11:49:55.531Z,96733.88
2023-05-08T11:50:57.273Z,96734.38
2023-05-08T11:51:59.618Z,96721.41
2023-05-08T11:53:01.771Z,96725.16
2023-05-08T11:54:04.415Z,96726.53
2023-05-08T11:55:17.325Z,96722.50
2023-05-08T11:56:19.140Z,96721.59
2023-05-08T11:57:21.013Z,96719.47
2023-05-08T11:58:22.684Z,96720.50
2023-05-08T11:59:24.321Z,96714.09
2023-05-08T12:00:29.096Z,96713.34
2023-05-08T12:01:33.332Z,96715.72
2023-05-08T12:02:36.967Z,96719.53
2023-05-08T12:03:38.669Z,96716.19
2023-05-08T12:04:45.519Z,96708.31
2023-05-08T12:05:50.198Z,96708.09
2023-05-08T12:06:57.573Z,96708.44
2023-05-08T12:07:59.722Z,96713.56
2023-05-08T12:09:02.266Z,96702.72
2023-05-08T12:10:03.985Z,96705.81
2023-05-08T12:11:12.104Z,96707.16
2023-05-08T12:12:13.691Z,96710.84
2023-05-08T12:13:35.772Z,96707.66
2023-05-08T12:14:37.340Z,96712.22
2023-05-08T12:15:38.873Z,96709.00
2023-05-08T12:16:46.934Z,96706.66
2023-05-08T12:17:48.675Z,96703.59
2023-05-08T12:18:51.836Z,96707.31
2023-05-08T12:19:56.713Z,96700.69
2023-05-08T12:21:00.542Z,96706.16
2023-05-08T12:22:05.486Z,96704.94
2023-05-08T12:23:07.155Z,96701.03
2023-05-08T12:24:11.304Z,96697.53
2023-05-08T12:25:16.161Z,96701.38
2023-05-08T12:26:18.010Z,96705.06
2023-05-08T12:27:23.413Z,96696.38
2023-05-08T12:28:24.959Z,96696.22
2023-05-08T12:29:26.525Z,96695.31
2023-05-08T12:30:28.257Z,96694.47
2023-05-08T12:31:30.077Z,96695.94
2023-05-08T12:32:35.023Z,96695.91
2023-05-08T12:33:38.628Z,96700.91
2023-05-08T12:34:40.284Z,96689.81
2023-05-08T12:35:42.134Z,96685.75
2023-05-08T12:36:43.691Z,96691.97
2023-05-08T12:37:46.418Z,96685.94
2023-05-08T12:38:47.995Z,96685.38
2023-05-08T12:39:49.508Z,96680.31
2023-05-08T12:40:53.140Z,96674.78
2023-05-08T12:41:54.699Z,96671.34
2023-05-08T12:44:31.574Z,96674.06
2023-05-08T12:45:35.812Z,96675.31